Quincy Center, Massachusetts
Current Conditions -  °F | °C
As of 4:54 AM on Sunday 25 Jan 2015 (Local Time) from KBOS Reporting Station
Broken Clouds Broken Clouds  
Wind Chill: 23°   Ceiling: 25000
Heat Index: 32°   Visibility: 10mi
Dew Point: 26°   Wind: 13mph
Humidity: 79%   Direction: 260°W
Pressure: 29.44"   Gusts: 23mph
Location:  42.2468°N, 71.0071°W
Report Text: KBOS 250954Z 26011G20KT 10SM SCT085 BKN250 00/M03 A2944 RMK A02 SLP967 T00001033
Loading
Personal Weather Stations






























Interactive Weather Map New forecast layout! Learn more

10-Day Weather Forecast

Advertisements
Track Severe Weather on mobile